sensor_id;sensor_type;location;lat;lon;timestamp;P1;durP1;ratioP1;P2;durP2;ratioP2
64031;SDS011;50278;47.796;11.968;2022-08-02T00:01:28;1.38;;;0.90;;
64031;SDS011;50278;47.796;11.968;2022-08-02T00:03:53;1.73;;;1.00;;
64031;SDS011;50278;47.796;11.968;2022-08-02T00:06:19;1.20;;;0.90;;
64031;SDS011;50278;47.796;11.968;2022-08-02T00:08:44;1.10;;;0.98;;
64031;SDS011;50278;47.796;11.968;2022-08-02T00:11:10;1.27;;;1.02;;
64031;SDS011;50278;47.796;11.968;2022-08-02T00:13:35;1.42;;;0.90;;
64031;SDS011;50278;47.796;11.968;2022-08-02T00:16:01;1.63;;;0.95;;
64031;SDS011;50278;47.796;11.968;2022-08-02T00:18:27;1.50;;;1.02;;
64031;SDS011;50278;47.796;11.968;2022-08-02T00:20:53;1.13;;;0.80;;
64031;SDS011;50278;47.796;11.968;2022-08-02T00:23:18;1.55;;;0.90;;
64031;SDS011;50278;47.796;11.968;2022-08-02T00:25:44;1.42;;;0.73;;
64031;SDS011;50278;47.796;11.968;2022-08-02T00:28:10;1.52;;;0.90;;
64031;SDS011;50278;47.796;11.968;2022-08-02T00:30:35;1.05;;;0.80;;
64031;SDS011;50278;47.796;11.968;2022-08-02T00:33:01;5.43;;;0.90;;
64031;SDS011;50278;47.796;11.968;2022-08-02T00:35:29;1.58;;;0.88;;
64031;SDS011;50278;47.796;11.968;2022-08-02T00:37:54;0.90;;;0.70;;
64031;SDS011;50278;47.796;11.968;2022-08-02T00:40:20;1.05;;;0.77;;
64031;SDS011;50278;47.796;11.968;2022-08-02T00:42:48;1.40;;;0.98;;
64031;SDS011;50278;47.796;11.968;2022-08-02T00:45:32;1.65;;;0.90;;
64031;SDS011;50278;47.796;11.968;2022-08-02T00:47:59;1.27;;;0.90;;
64031;SDS011;50278;47.796;11.968;2022-08-02T00:50:25;1.70;;;0.80;;
64031;SDS011;50278;47.796;11.968;2022-08-02T00:52:50;1.98;;;1.00;;
64031;SDS011;50278;47.796;11.968;2022-08-02T00:55:16;2.13;;;0.80;;
64031;SDS011;50278;47.796;11.968;2022-08-02T00:57:42;1.60;;;1.17;;
64031;SDS011;50278;47.796;11.968;2022-08-02T01:00:07;0.95;;;0.63;;
64031;SDS011;50278;47.796;11.968;2022-08-02T01:02:33;1.40;;;1.05;;
64031;SDS011;50278;47.796;11.968;2022-08-02T01:04:59;1.88;;;0.65;;
64031;SDS011;50278;47.796;11.968;2022-08-02T01:07:25;1.00;;;0.80;;
64031;SDS011;50278;47.796;11.968;2022-08-02T01:09:51;1.27;;;0.90;;
64031;SDS011;50278;47.796;11.968;2022-08-02T01:12:17;1.17;;;0.90;;
64031;SDS011;50278;47.796;11.968;2022-08-02T01:14:43;1.30;;;0.90;;
64031;SDS011;50278;47.796;11.968;2022-08-02T01:31:15;1.42;;;0.80;;
64031;SDS011;50278;47.796;11.968;2022-08-02T01:33:52;1.10;;;0.60;;
64031;SDS011;50278;47.796;11.968;2022-08-02T01:36:25;1.02;;;0.60;;
64031;SDS011;50278;47.796;11.968;2022-08-02T01:38:57;2.22;;;0.70;;
64031;SDS011;50278;47.796;11.968;2022-08-02T01:41:25;1.02;;;0.70;;
64031;SDS011;50278;47.796;11.968;2022-08-02T01:43:56;1.58;;;0.82;;
64031;SDS011;50278;47.796;11.968;2022-08-02T01:46:23;0.70;;;0.60;;
64031;SDS011;50278;47.796;11.968;2022-08-02T01:48:51;0.85;;;0.70;;
64031;SDS011;50278;47.796;11.968;2022-08-02T01:51:20;0.73;;;0.52;;
64031;SDS011;50278;47.796;11.968;2022-08-02T01:54:06;1.15;;;0.60;;
64031;SDS011;50278;47.796;11.968;2022-08-02T01:56:35;1.17;;;0.60;;
64031;SDS011;50278;47.796;11.968;2022-08-02T01:59:03;0.93;;;0.70;;
64031;SDS011;50278;47.796;11.968;2022-08-02T02:01:31;0.60;;;0.40;;
64031;SDS011;50278;47.796;11.968;2022-08-02T02:04:01;0.88;;;0.70;;
64031;SDS011;50278;47.796;11.968;2022-08-02T02:06:27;0.70;;;0.60;;
64031;SDS011;50278;47.796;11.968;2022-08-02T02:08:53;1.23;;;0.40;;
64031;SDS011;50278;47.796;11.968;2022-08-02T02:11:20;1.10;;;0.60;;
64031;SDS011;50278;47.796;11.968;2022-08-02T02:13:46;2.97;;;0.45;;
64031;SDS011;50278;47.796;11.968;2022-08-02T02:16:14;1.80;;;0.93;;
64031;SDS011;50278;47.796;11.968;2022-08-02T02:18:40;1.38;;;0.40;;
64031;SDS011;50278;47.796;11.968;2022-08-02T02:21:08;0.80;;;0.50;;
64031;SDS011;50278;47.796;11.968;2022-08-02T02:23:34;1.05;;;0.80;;
64031;SDS011;50278;47.796;11.968;2022-08-02T02:26:00;1.40;;;0.98;;
64031;SDS011;50278;47.796;11.968;2022-08-02T02:28:28;1.83;;;0.77;;
64031;SDS011;50278;47.796;11.968;2022-08-02T02:31:04;0.85;;;0.60;;
64031;SDS011;50278;47.796;11.968;2022-08-02T02:33:32;1.05;;;0.80;;
64031;SDS011;50278;47.796;11.968;2022-08-02T02:36:01;1.15;;;0.70;;
64031;SDS011;50278;47.796;11.968;2022-08-02T02:38:28;1.05;;;0.88;;
64031;SDS011;50278;47.796;11.968;2022-08-02T02:40:57;1.30;;;0.80;;
64031;SDS011;50278;47.796;11.968;2022-08-02T02:43:26;1.10;;;0.90;;
64031;SDS011;50278;47.796;11.968;2022-08-02T02:45:52;1.48;;;0.85;;
64031;SDS011;50278;47.796;11.968;2022-08-02T02:48:19;1.70;;;1.00;;
64031;SDS011;50278;47.796;11.968;2022-08-02T02:50:45;1.42;;;0.85;;
64031;SDS011;50278;47.796;11.968;2022-08-02T02:53:12;1.60;;;0.80;;
64031;SDS011;50278;47.796;11.968;2022-08-02T02:55:41;1.27;;;0.88;;
64031;SDS011;50278;47.796;11.968;2022-08-02T02:58:08;0.90;;;0.80;;
64031;SDS011;50278;47.796;11.968;2022-08-02T03:00:34;2.63;;;1.10;;
64031;SDS011;50278;47.796;11.968;2022-08-02T03:03:18;2.85;;;0.93;;
64031;SDS011;50278;47.796;11.968;2022-08-02T03:05:44;3.00;;;1.17;;
64031;SDS011;50278;47.796;11.968;2022-08-02T03:08:10;1.90;;;1.00;;
64031;SDS011;50278;47.796;11.968;2022-08-02T03:10:37;1.00;;;0.80;;
64031;SDS011;50278;47.796;11.968;2022-08-02T03:13:03;1.80;;;0.98;;
64031;SDS011;50278;47.796;11.968;2022-08-02T03:15:29;1.52;;;0.82;;
64031;SDS011;50278;47.796;11.968;2022-08-02T03:17:55;1.70;;;0.73;;
64031;SDS011;50278;47.796;11.968;2022-08-02T03:20:21;1.83;;;0.75;;
64031;SDS011;50278;47.796;11.968;2022-08-02T03:22:47;1.52;;;0.75;;
64031;SDS011;50278;47.796;11.968;2022-08-02T03:25:13;0.90;;;0.80;;
64031;SDS011;50278;47.796;11.968;2022-08-02T03:27:40;0.77;;;0.60;;
64031;SDS011;50278;47.796;11.968;2022-08-02T03:30:07;0.98;;;0.60;;
64031;SDS011;50278;47.796;11.968;2022-08-02T03:32:34;1.52;;;0.60;;
64031;SDS011;50278;47.796;11.968;2022-08-02T03:35:02;2.03;;;0.80;;
64031;SDS011;50278;47.796;11.968;2022-08-02T03:37:30;1.10;;;0.80;;
64031;SDS011;50278;47.796;11.968;2022-08-02T03:39:58;1.13;;;0.70;;
64031;SDS011;50278;47.796;11.968;2022-08-02T03:42:24;1.15;;;0.73;;
64031;SDS011;50278;47.796;11.968;2022-08-02T03:44:51;2.20;;;0.57;;
64031;SDS011;50278;47.796;11.968;2022-08-02T03:47:18;1.38;;;0.70;;
64031;SDS011;50278;47.796;11.968;2022-08-02T03:49:44;1.63;;;1.08;;
64031;SDS011;50278;47.796;11.968;2022-08-02T03:52:10;2.58;;;1.23;;
64031;SDS011;50278;47.796;11.968;2022-08-02T03:54:36;2.15;;;1.20;;
64031;SDS011;50278;47.796;11.968;2022-08-02T03:57:04;1.58;;;1.30;;
64031;SDS011;50278;47.796;11.968;2022-08-02T03:59:38;1.75;;;1.20;;
64031;SDS011;50278;47.796;11.968;2022-08-02T04:02:05;2.65;;;1.30;;
64031;SDS011;50278;47.796;11.968;2022-08-02T04:04:31;3.38;;;1.25;;
64031;SDS011;50278;47.796;11.968;2022-08-02T04:06:56;2.15;;;1.33;;
64031;SDS011;50278;47.796;11.968;2022-08-02T04:09:22;2.50;;;1.73;;
64031;SDS011;50278;47.796;11.968;2022-08-02T04:11:47;1.77;;;1.40;;
64031;SDS011;50278;47.796;11.968;2022-08-02T04:14:13;1.92;;;1.50;;
64031;SDS011;50278;47.796;11.968;2022-08-02T04:16:43;1.52;;;1.33;;
64031;SDS011;50278;47.796;11.968;2022-08-02T04:19:19;1.70;;;1.30;;
64031;SDS011;50278;47.796;11.968;2022-08-02T04:21:52;2.00;;;1.52;;
64031;SDS011;50278;47.796;11.968;2022-08-02T04:24:21;3.42;;;1.48;;
64031;SDS011;50278;47.796;11.968;2022-08-02T04:26:52;2.63;;;1.60;;
64031;SDS011;50278;47.796;11.968;2022-08-02T04:29:19;2.20;;;1.33;;
64031;SDS011;50278;47.796;11.968;2022-08-02T04:31:46;2.63;;;1.25;;
64031;SDS011;50278;47.796;11.968;2022-08-02T04:34:12;2.22;;;1.30;;
64031;SDS011;50278;47.796;11.968;2022-08-02T04:36:38;1.70;;;1.58;;
64031;SDS011;50278;47.796;11.968;2022-08-02T04:39:05;1.67;;;1.25;;
64031;SDS011;50278;47.796;11.968;2022-08-02T04:41:37;1.60;;;1.20;;
64031;SDS011;50278;47.796;11.968;2022-08-02T04:44:06;2.55;;;1.42;;
64031;SDS011;50278;47.796;11.968;2022-08-02T04:46:32;4.43;;;1.75;;
64031;SDS011;50278;47.796;11.968;2022-08-02T04:48:59;3.67;;;1.40;;
64031;SDS011;50278;47.796;11.968;2022-08-02T04:51:24;2.85;;;1.50;;
64031;SDS011;50278;47.796;11.968;2022-08-02T04:53:50;1.80;;;1.20;;
64031;SDS011;50278;47.796;11.968;2022-08-02T04:56:15;2.80;;;1.50;;
64031;SDS011;50278;47.796;11.968;2022-08-02T04:58:40;2.53;;;1.40;;
64031;SDS011;50278;47.796;11.968;2022-08-02T05:01:06;2.78;;;1.10;;
64031;SDS011;50278;47.796;11.968;2022-08-02T05:03:31;2.45;;;1.13;;
64031;SDS011;50278;47.796;11.968;2022-08-02T05:05:57;1.92;;;1.27;;
64031;SDS011;50278;47.796;11.968;2022-08-02T05:08:24;2.60;;;1.10;;
64031;SDS011;50278;47.796;11.968;2022-08-02T05:10:50;2.92;;;1.17;;
64031;SDS011;50278;47.796;11.968;2022-08-02T05:13:15;2.10;;;1.20;;
64031;SDS011;50278;47.796;11.968;2022-08-02T05:15:41;1.95;;;1.17;;
64031;SDS011;50278;47.796;11.968;2022-08-02T05:18:06;1.38;;;1.15;;
64031;SDS011;50278;47.796;11.968;2022-08-02T05:20:32;1.92;;;1.20;;
64031;SDS011;50278;47.796;11.968;2022-08-02T05:22:57;2.60;;;1.20;;
64031;SDS011;50278;47.796;11.968;2022-08-02T05:25:23;1.83;;;1.27;;
64031;SDS011;50278;47.796;11.968;2022-08-02T05:27:48;1.67;;;1.10;;
64031;SDS011;50278;47.796;11.968;2022-08-02T05:30:14;2.33;;;1.20;;
64031;SDS011;50278;47.796;11.968;2022-08-02T05:32:43;3.22;;;1.30;;
64031;SDS011;50278;47.796;11.968;2022-08-02T05:35:09;2.55;;;1.30;;
64031;SDS011;50278;47.796;11.968;2022-08-02T05:37:35;2.92;;;1.15;;
64031;SDS011;50278;47.796;11.968;2022-08-02T05:40:01;1.88;;;1.00;;
64031;SDS011;50278;47.796;11.968;2022-08-02T05:42:30;3.15;;;1.25;;
64031;SDS011;50278;47.796;11.968;2022-08-02T05:44:56;2.33;;;1.13;;
64031;SDS011;50278;47.796;11.968;2022-08-02T05:47:21;1.42;;;1.20;;
64031;SDS011;50278;47.796;11.968;2022-08-02T05:49:48;1.48;;;1.10;;
64031;SDS011;50278;47.796;11.968;2022-08-02T05:52:15;1.60;;;0.98;;
64031;SDS011;50278;47.796;11.968;2022-08-02T05:55:02;1.20;;;0.80;;
64031;SDS011;50278;47.796;11.968;2022-08-02T06:00:32;1.30;;;0.90;;
64031;SDS011;50278;47.796;11.968;2022-08-02T06:05:40;3.58;;;1.27;;
64031;SDS011;50278;47.796;11.968;2022-08-02T06:08:13;4.10;;;1.33;;
64031;SDS011;50278;47.796;11.968;2022-08-02T06:10:39;1.70;;;1.27;;
64031;SDS011;50278;47.796;11.968;2022-08-02T06:13:09;2.30;;;1.00;;
64031;SDS011;50278;47.796;11.968;2022-08-02T06:15:40;1.85;;;1.38;;
64031;SDS011;50278;47.796;11.968;2022-08-02T06:18:06;1.90;;;1.13;;
64031;SDS011;50278;47.796;11.968;2022-08-02T06:20:33;3.00;;;1.38;;
64031;SDS011;50278;47.796;11.968;2022-08-02T06:23:00;1.80;;;1.20;;
64031;SDS011;50278;47.796;11.968;2022-08-02T06:25:27;1.80;;;1.42;;
64031;SDS011;50278;47.796;11.968;2022-08-02T06:27:54;2.92;;;1.30;;
64031;SDS011;50278;47.796;11.968;2022-08-02T06:30:19;2.47;;;1.40;;
64031;SDS011;50278;47.796;11.968;2022-08-02T06:32:46;1.67;;;1.30;;
64031;SDS011;50278;47.796;11.968;2022-08-02T06:35:16;1.75;;;1.20;;
64031;SDS011;50278;47.796;11.968;2022-08-02T06:45:42;3.95;;;1.30;;
64031;SDS011;50278;47.796;11.968;2022-08-02T06:48:08;2.65;;;1.30;;
64031;SDS011;50278;47.796;11.968;2022-08-02T06:50:34;3.50;;;1.40;;
64031;SDS011;50278;47.796;11.968;2022-08-02T06:53:03;1.60;;;1.13;;
64031;SDS011;50278;47.796;11.968;2022-08-02T06:55:29;1.48;;;1.10;;
64031;SDS011;50278;47.796;11.968;2022-08-02T06:57:56;3.53;;;1.25;;
64031;SDS011;50278;47.796;11.968;2022-08-02T07:00:22;2.75;;;1.30;;
64031;SDS011;50278;47.796;11.968;2022-08-02T07:02:48;1.67;;;0.80;;
64031;SDS011;50278;47.796;11.968;2022-08-02T07:05:14;1.98;;;1.00;;
64031;SDS011;50278;47.796;11.968;2022-08-02T07:07:39;3.08;;;1.08;;
64031;SDS011;50278;47.796;11.968;2022-08-02T07:10:05;2.25;;;1.10;;
64031;SDS011;50278;47.796;11.968;2022-08-02T07:12:32;1.65;;;0.90;;
64031;SDS011;50278;47.796;11.968;2022-08-02T07:14:59;2.13;;;0.90;;
64031;SDS011;50278;47.796;11.968;2022-08-02T07:17:26;2.88;;;1.02;;
64031;SDS011;50278;47.796;11.968;2022-08-02T07:19:52;1.13;;;0.90;;
64031;SDS011;50278;47.796;11.968;2022-08-02T07:22:18;1.88;;;0.60;;
64031;SDS011;50278;47.796;11.968;2022-08-02T07:24:47;1.73;;;0.90;;
64031;SDS011;50278;47.796;11.968;2022-08-02T07:27:12;1.00;;;0.80;;
64031;SDS011;50278;47.796;11.968;2022-08-02T07:29:39;1.00;;;0.75;;
64031;SDS011;50278;47.796;11.968;2022-08-02T07:32:05;3.33;;;0.90;;
64031;SDS011;50278;47.796;11.968;2022-08-02T07:34:30;2.50;;;0.80;;
64031;SDS011;50278;47.796;11.968;2022-08-02T07:36:56;1.38;;;0.70;;
64031;SDS011;50278;47.796;11.968;2022-08-02T07:39:21;2.85;;;0.80;;
64031;SDS011;50278;47.796;11.968;2022-08-02T07:41:47;0.90;;;0.80;;
64031;SDS011;50278;47.796;11.968;2022-08-02T07:44:15;1.38;;;0.52;;
64031;SDS011;50278;47.796;11.968;2022-08-02T07:46:41;2.30;;;0.70;;
64031;SDS011;50278;47.796;11.968;2022-08-02T07:49:06;2.45;;;0.60;;
64031;SDS011;50278;47.796;11.968;2022-08-02T07:51:32;1.45;;;0.60;;
64031;SDS011;50278;47.796;11.968;2022-08-02T07:53:59;0.82;;;0.63;;
64031;SDS011;50278;47.796;11.968;2022-08-02T07:56:25;3.83;;;0.77;;
64031;SDS011;50278;47.796;11.968;2022-08-02T07:58:51;1.33;;;0.40;;
64031;SDS011;50278;47.796;11.968;2022-08-02T08:01:16;1.02;;;0.50;;
64031;SDS011;50278;47.796;11.968;2022-08-02T08:03:42;1.10;;;0.52;;
64031;SDS011;50278;47.796;11.968;2022-08-02T08:06:08;1.27;;;0.90;;
64031;SDS011;50278;47.796;11.968;2022-08-02T08:08:33;0.63;;;0.50;;
64031;SDS011;50278;47.796;11.968;2022-08-02T08:10:59;0.95;;;0.40;;
64031;SDS011;50278;47.796;11.968;2022-08-02T08:13:24;0.80;;;0.50;;
64031;SDS011;50278;47.796;11.968;2022-08-02T08:15:50;0.60;;;0.55;;
64031;SDS011;50278;47.796;11.968;2022-08-02T08:18:15;0.50;;;0.38;;
64031;SDS011;50278;47.796;11.968;2022-08-02T08:20:41;1.58;;;0.50;;
64031;SDS011;50278;47.796;11.968;2022-08-02T08:23:07;0.77;;;0.50;;
64031;SDS011;50278;47.796;11.968;2022-08-02T08:25:32;0.85;;;0.50;;
64031;SDS011;50278;47.796;11.968;2022-08-02T08:27:57;0.70;;;0.50;;
64031;SDS011;50278;47.796;11.968;2022-08-02T08:30:23;0.98;;;0.50;;
64031;SDS011;50278;47.796;11.968;2022-08-02T08:32:49;1.45;;;0.70;;
64031;SDS011;50278;47.796;11.968;2022-08-02T08:35:14;1.25;;;0.50;;
64031;SDS011;50278;47.796;11.968;2022-08-02T08:37:40;1.70;;;0.65;;
64031;SDS011;50278;47.796;11.968;2022-08-02T08:40:06;0.55;;;0.40;;
64031;SDS011;50278;47.796;11.968;2022-08-02T08:42:35;3.63;;;0.80;;
64031;SDS011;50278;47.796;11.968;2022-08-02T08:45:02;2.22;;;0.68;;
64031;SDS011;50278;47.796;11.968;2022-08-02T08:47:38;1.08;;;0.60;;
64031;SDS011;50278;47.796;11.968;2022-08-02T08:50:06;0.95;;;0.60;;
64031;SDS011;50278;47.796;11.968;2022-08-02T08:52:40;0.98;;;0.60;;
64031;SDS011;50278;47.796;11.968;2022-08-02T08:55:10;0.70;;;0.45;;
64031;SDS011;50278;47.796;11.968;2022-08-02T08:57:39;1.00;;;0.52;;
64031;SDS011;50278;47.796;11.968;2022-08-02T09:00:06;0.65;;;0.43;;
64031;SDS011;50278;47.796;11.968;2022-08-02T09:02:33;1.08;;;0.50;;
64031;SDS011;50278;47.796;11.968;2022-08-02T09:04:59;1.02;;;0.60;;
64031;SDS011;50278;47.796;11.968;2022-08-02T09:07:25;2.40;;;0.50;;
64031;SDS011;50278;47.796;11.968;2022-08-02T09:09:51;0.93;;;0.40;;
64031;SDS011;50278;47.796;11.968;2022-08-02T09:12:17;2.10;;;0.70;;
64031;SDS011;50278;47.796;11.968;2022-08-02T09:14:45;0.57;;;0.43;;
64031;SDS011;50278;47.796;11.968;2022-08-02T09:17:11;0.90;;;0.63;;
64031;SDS011;50278;47.796;11.968;2022-08-02T09:19:36;0.60;;;0.50;;
64031;SDS011;50278;47.796;11.968;2022-08-02T09:22:04;0.60;;;0.50;;
64031;SDS011;50278;47.796;11.968;2022-08-02T09:24:44;2.88;;;0.65;;
64031;SDS011;50278;47.796;11.968;2022-08-02T09:27:12;0.90;;;0.80;;
64031;SDS011;50278;47.796;11.968;2022-08-02T09:29:39;0.90;;;0.70;;
64031;SDS011;50278;47.796;11.968;2022-08-02T09:32:09;0.70;;;0.60;;
64031;SDS011;50278;47.796;11.968;2022-08-02T09:37:24;1.35;;;0.50;;
64031;SDS011;50278;47.796;11.968;2022-08-02T09:39:52;0.70;;;0.55;;
64031;SDS011;50278;47.796;11.968;2022-08-02T09:42:18;1.63;;;0.43;;
64031;SDS011;50278;47.796;11.968;2022-08-02T09:44:54;0.60;;;0.50;;
64031;SDS011;50278;47.796;11.968;2022-08-02T09:47:20;0.45;;;0.38;;
64031;SDS011;50278;47.796;11.968;2022-08-02T09:49:47;0.88;;;0.68;;
64031;SDS011;50278;47.796;11.968;2022-08-02T09:52:13;0.90;;;0.60;;
64031;SDS011;50278;47.796;11.968;2022-08-02T09:54:39;0.77;;;0.50;;
64031;SDS011;50278;47.796;11.968;2022-08-02T09:57:07;0.70;;;0.60;;
64031;SDS011;50278;47.796;11.968;2022-08-02T09:59:32;0.50;;;0.50;;
64031;SDS011;50278;47.796;11.968;2022-08-02T10:01:58;1.38;;;0.52;;
64031;SDS011;50278;47.796;11.968;2022-08-02T10:04:26;0.88;;;0.68;;
64031;SDS011;50278;47.796;11.968;2022-08-02T10:09:23;0.80;;;0.60;;
64031;SDS011;50278;47.796;11.968;2022-08-02T10:11:49;0.60;;;0.57;;
64031;SDS011;50278;47.796;11.968;2022-08-02T10:14:15;1.65;;;0.63;;
64031;SDS011;50278;47.796;11.968;2022-08-02T10:16:43;0.82;;;0.57;;
64031;SDS011;50278;47.796;11.968;2022-08-02T10:19:09;0.60;;;0.50;;
64031;SDS011;50278;47.796;11.968;2022-08-02T10:21:36;0.68;;;0.50;;
64031;SDS011;50278;47.796;11.968;2022-08-02T10:24:14;0.93;;;0.52;;
64031;SDS011;50278;47.796;11.968;2022-08-02T10:26:43;0.73;;;0.50;;
64031;SDS011;50278;47.796;11.968;2022-08-02T10:29:10;1.75;;;0.60;;
64031;SDS011;50278;47.796;11.968;2022-08-02T10:31:41;0.98;;;0.63;;
64031;SDS011;50278;47.796;11.968;2022-08-02T10:34:11;0.90;;;0.60;;
64031;SDS011;50278;47.796;11.968;2022-08-02T10:36:40;1.58;;;0.70;;
64031;SDS011;50278;47.796;11.968;2022-08-02T10:39:06;1.08;;;0.40;;
64031;SDS011;50278;47.796;11.968;2022-08-02T10:41:39;0.47;;;0.35;;
64031;SDS011;50278;47.796;11.968;2022-08-02T10:44:08;0.57;;;0.50;;
64031;SDS011;50278;47.796;11.968;2022-08-02T10:46:48;1.00;;;0.52;;
64031;SDS011;50278;47.796;11.968;2022-08-02T10:56:56;0.60;;;0.50;;
64031;SDS011;50278;47.796;11.968;2022-08-02T11:01:55;1.67;;;0.60;;
64031;SDS011;50278;47.796;11.968;2022-08-02T11:07:16;1.10;;;0.50;;
64031;SDS011;50278;47.796;11.968;2022-08-02T11:09:44;0.80;;;0.30;;
64031;SDS011;50278;47.796;11.968;2022-08-02T11:12:12;0.60;;;0.40;;
64031;SDS011;50278;47.796;11.968;2022-08-02T11:14:41;1.10;;;0.63;;
64031;SDS011;50278;47.796;11.968;2022-08-02T11:17:09;2.03;;;0.60;;
64031;SDS011;50278;47.796;11.968;2022-08-02T11:22:32;1.73;;;0.40;;
64031;SDS011;50278;47.796;11.968;2022-08-02T11:24:57;0.40;;;0.38;;
64031;SDS011;50278;47.796;11.968;2022-08-02T11:27:46;0.85;;;0.40;;
64031;SDS011;50278;47.796;11.968;2022-08-02T11:30:12;1.02;;;0.60;;
64031;SDS011;50278;47.796;11.968;2022-08-02T11:32:38;1.83;;;0.50;;
64031;SDS011;50278;47.796;11.968;2022-08-02T11:35:04;0.55;;;0.40;;
64031;SDS011;50278;47.796;11.968;2022-08-02T11:37:40;1.15;;;0.50;;
64031;SDS011;50278;47.796;11.968;2022-08-02T11:42:35;0.43;;;0.30;;
64031;SDS011;50278;47.796;11.968;2022-08-02T11:45:06;0.60;;;0.50;;
64031;SDS011;50278;47.796;11.968;2022-08-02T11:47:33;0.47;;;0.47;;
64031;SDS011;50278;47.796;11.968;2022-08-02T11:50:16;0.50;;;0.45;;
64031;SDS011;50278;47.796;11.968;2022-08-02T11:52:45;0.90;;;0.60;;
64031;SDS011;50278;47.796;11.968;2022-08-02T11:55:11;0.63;;;0.47;;
64031;SDS011;50278;47.796;11.968;2022-08-02T11:57:38;0.57;;;0.40;;
64031;SDS011;50278;47.796;11.968;2022-08-02T12:00:12;0.40;;;0.40;;
64031;SDS011;50278;47.796;11.968;2022-08-02T12:02:43;0.70;;;0.60;;
64031;SDS011;50278;47.796;11.968;2022-08-02T12:05:14;1.23;;;0.65;;
64031;SDS011;50278;47.796;11.968;2022-08-02T12:07:42;0.70;;;0.55;;
64031;SDS011;50278;47.796;11.968;2022-08-02T12:10:13;1.58;;;0.90;;
64031;SDS011;50278;47.796;11.968;2022-08-02T12:12:55;0.50;;;0.50;;
64031;SDS011;50278;47.796;11.968;2022-08-02T12:17:54;0.43;;;0.43;;
64031;SDS011;50278;47.796;11.968;2022-08-02T12:20:38;1.00;;;0.68;;
64031;SDS011;50278;47.796;11.968;2022-08-02T12:23:04;0.70;;;0.45;;
64031;SDS011;50278;47.796;11.968;2022-08-02T12:25:29;1.13;;;0.50;;
64031;SDS011;50278;47.796;11.968;2022-08-02T12:28:11;1.35;;;0.50;;
64031;SDS011;50278;47.796;11.968;2022-08-02T12:30:47;0.38;;;0.38;;
64031;SDS011;50278;47.796;11.968;2022-08-02T12:33:14;0.63;;;0.45;;
64031;SDS011;50278;47.796;11.968;2022-08-02T12:35:39;0.68;;;0.52;;
64031;SDS011;50278;47.796;11.968;2022-08-02T12:38:09;0.40;;;0.40;;
64031;SDS011;50278;47.796;11.968;2022-08-02T12:40:35;0.50;;;0.43;;
64031;SDS011;50278;47.796;11.968;2022-08-02T12:43:02;2.05;;;0.50;;
64031;SDS011;50278;47.796;11.968;2022-08-02T12:45:30;0.73;;;0.60;;
64031;SDS011;50278;47.796;11.968;2022-08-02T12:47:59;2.17;;;0.60;;
64031;SDS011;50278;47.796;11.968;2022-08-02T12:50:29;0.70;;;0.47;;
64031;SDS011;50278;47.796;11.968;2022-08-02T12:53:03;0.77;;;0.50;;
64031;SDS011;50278;47.796;11.968;2022-08-02T12:55:31;1.90;;;0.50;;
64031;SDS011;50278;47.796;11.968;2022-08-02T12:57:57;1.42;;;0.30;;
64031;SDS011;50278;47.796;11.968;2022-08-02T13:00:25;1.40;;;0.60;;
64031;SDS011;50278;47.796;11.968;2022-08-02T13:02:53;2.58;;;0.50;;
64031;SDS011;50278;47.796;11.968;2022-08-02T13:05:19;1.10;;;0.50;;
64031;SDS011;50278;47.796;11.968;2022-08-02T13:07:45;2.78;;;0.65;;
64031;SDS011;50278;47.796;11.968;2022-08-02T13:10:11;0.40;;;0.40;;
64031;SDS011;50278;47.796;11.968;2022-08-02T13:12:36;0.90;;;0.60;;
64031;SDS011;50278;47.796;11.968;2022-08-02T13:15:04;0.60;;;0.50;;
64031;SDS011;50278;47.796;11.968;2022-08-02T13:17:33;1.95;;;0.50;;
64031;SDS011;50278;47.796;11.968;2022-08-02T13:19:58;0.95;;;0.60;;
64031;SDS011;50278;47.796;11.968;2022-08-02T13:22:24;0.60;;;0.50;;
64031;SDS011;50278;47.796;11.968;2022-08-02T13:24:50;1.48;;;0.70;;
64031;SDS011;50278;47.796;11.968;2022-08-02T13:27:19;1.60;;;0.60;;
64031;SDS011;50278;47.796;11.968;2022-08-02T13:29:44;0.60;;;0.50;;
64031;SDS011;50278;47.796;11.968;2022-08-02T13:32:10;0.52;;;0.50;;
64031;SDS011;50278;47.796;11.968;2022-08-02T13:34:35;0.47;;;0.47;;
64031;SDS011;50278;47.796;11.968;2022-08-02T13:37:01;0.70;;;0.50;;
64031;SDS011;50278;47.796;11.968;2022-08-02T13:39:28;0.80;;;0.50;;
64031;SDS011;50278;47.796;11.968;2022-08-02T13:41:53;1.30;;;0.57;;
64031;SDS011;50278;47.796;11.968;2022-08-02T13:44:19;1.30;;;0.68;;
64031;SDS011;50278;47.796;11.968;2022-08-02T13:46:45;0.70;;;0.35;;
64031;SDS011;50278;47.796;11.968;2022-08-02T13:49:11;0.70;;;0.50;;
64031;SDS011;50278;47.796;11.968;2022-08-02T13:51:38;0.85;;;0.55;;
64031;SDS011;50278;47.796;11.968;2022-08-02T13:54:03;0.50;;;0.50;;
64031;SDS011;50278;47.796;11.968;2022-08-02T13:56:29;1.13;;;0.40;;
64031;SDS011;50278;47.796;11.968;2022-08-02T13:58:55;0.80;;;0.40;;
64031;SDS011;50278;47.796;11.968;2022-08-02T14:01:23;3.50;;;0.50;;
64031;SDS011;50278;47.796;11.968;2022-08-02T14:03:49;0.90;;;0.55;;
64031;SDS011;50278;47.796;11.968;2022-08-02T14:06:15;1.58;;;0.70;;
64031;SDS011;50278;47.796;11.968;2022-08-02T14:08:41;2.22;;;0.55;;
64031;SDS011;50278;47.796;11.968;2022-08-02T14:11:06;0.50;;;0.50;;
64031;SDS011;50278;47.796;11.968;2022-08-02T14:13:32;0.90;;;0.45;;
64031;SDS011;50278;47.796;11.968;2022-08-02T14:15:57;1.63;;;0.60;;
64031;SDS011;50278;47.796;11.968;2022-08-02T14:18:24;1.13;;;0.50;;
64031;SDS011;50278;47.796;11.968;2022-08-02T14:20:49;0.43;;;0.43;;
64031;SDS011;50278;47.796;11.968;2022-08-02T14:23:15;0.63;;;0.45;;
64031;SDS011;50278;47.796;11.968;2022-08-02T14:25:40;0.90;;;0.45;;
64031;SDS011;50278;47.796;11.968;2022-08-02T14:28:06;1.65;;;0.40;;
64031;SDS011;50278;47.796;11.968;2022-08-02T14:30:33;0.98;;;0.68;;
64031;SDS011;50278;47.796;11.968;2022-08-02T14:32:59;0.82;;;0.55;;
64031;SDS011;50278;47.796;11.968;2022-08-02T14:35:25;1.63;;;0.60;;
64031;SDS011;50278;47.796;11.968;2022-08-02T14:37:50;0.68;;;0.50;;
64031;SDS011;50278;47.796;11.968;2022-08-02T14:40:16;1.05;;;0.50;;
64031;SDS011;50278;47.796;11.968;2022-08-02T14:42:42;0.55;;;0.40;;
64031;SDS011;50278;47.796;11.968;2022-08-02T14:45:07;0.80;;;0.70;;
64031;SDS011;50278;47.796;11.968;2022-08-02T14:47:33;0.68;;;0.50;;
64031;SDS011;50278;47.796;11.968;2022-08-02T14:49:59;0.45;;;0.45;;
64031;SDS011;50278;47.796;11.968;2022-08-02T14:52:24;0.50;;;0.50;;
64031;SDS011;50278;47.796;11.968;2022-08-02T14:54:50;2.30;;;0.30;;
64031;SDS011;50278;47.796;11.968;2022-08-02T14:57:15;0.80;;;0.50;;
64031;SDS011;50278;47.796;11.968;2022-08-02T14:59:41;1.25;;;0.70;;
64031;SDS011;50278;47.796;11.968;2022-08-02T15:02:07;2.78;;;0.75;;
64031;SDS011;50278;47.796;11.968;2022-08-02T15:04:32;1.10;;;0.60;;
64031;SDS011;50278;47.796;11.968;2022-08-02T15:06:58;1.90;;;0.95;;
64031;SDS011;50278;47.796;11.968;2022-08-02T15:09:25;1.10;;;0.60;;
64031;SDS011;50278;47.796;11.968;2022-08-02T15:11:51;0.45;;;0.40;;
64031;SDS011;50278;47.796;11.968;2022-08-02T15:14:18;3.50;;;0.57;;
64031;SDS011;50278;47.796;11.968;2022-08-02T15:16:44;0.40;;;0.40;;
64031;SDS011;50278;47.796;11.968;2022-08-02T15:19:09;0.70;;;0.40;;
64031;SDS011;50278;47.796;11.968;2022-08-02T15:21:35;0.88;;;0.52;;
64031;SDS011;50278;47.796;11.968;2022-08-02T15:24:00;0.70;;;0.50;;
64031;SDS011;50278;47.796;11.968;2022-08-02T15:26:26;0.68;;;0.57;;
64031;SDS011;50278;47.796;11.968;2022-08-02T15:28:51;1.38;;;0.60;;